createdAt,value
2023-02-13T00:01:08.101Z,-3.24
2023-02-13T00:03:35.614Z,-3.22
2023-02-13T00:06:03.123Z,-3.19
2023-02-13T00:08:30.685Z,-3.21
2023-02-13T00:10:58.582Z,-3.22
2023-02-13T00:13:26.378Z,-3.28
2023-02-13T00:15:54.000Z,-3.32
2023-02-13T00:18:21.479Z,-3.41
2023-02-13T00:20:49.001Z,-3.47
2023-02-13T00:23:16.903Z,-3.49
2023-02-13T00:25:44.521Z,-3.53
2023-02-13T00:28:12.080Z,-3.49
2023-02-13T00:30:39.697Z,-3.40
2023-02-13T00:33:07.356Z,-3.36
2023-02-13T00:35:34.856Z,-3.30
2023-02-13T00:38:02.409Z,-3.22
2023-02-13T00:40:29.864Z,-3.13
2023-02-13T00:42:57.316Z,-3.08
2023-02-13T00:45:24.860Z,-3.06
2023-02-13T00:47:52.390Z,-3.03
2023-02-13T00:50:19.879Z,-2.99
2023-02-13T00:52:47.410Z,-2.96
2023-02-13T00:55:14.872Z,-3.02
2023-02-13T00:57:42.370Z,-3.11
2023-02-13T01:00:09.884Z,-3.13
2023-02-13T01:02:37.442Z,-3.11
2023-02-13T01:05:05.100Z,-3.12
2023-02-13T01:07:32.619Z,-3.15
2023-02-13T01:10:00.125Z,-3.16
2023-02-13T01:12:27.706Z,-3.23
2023-02-13T01:14:56.083Z,-3.29
2023-02-13T01:17:23.576Z,-3.33
2023-02-13T01:19:51.120Z,-3.33
2023-02-13T01:22:18.888Z,-3.33
2023-02-13T01:24:46.354Z,-3.32
2023-02-13T01:27:13.823Z,-3.26
2023-02-13T01:29:41.543Z,-3.20
2023-02-13T01:32:09.154Z,-3.17
2023-02-13T01:34:36.937Z,-3.10
2023-02-13T01:37:04.625Z,-3.04
2023-02-13T01:39:32.089Z,-2.99
2023-02-13T01:41:59.607Z,-2.98
2023-02-13T01:44:27.265Z,-3.00
2023-02-13T01:46:54.848Z,-3.01
2023-02-13T01:49:22.404Z,-2.99
2023-02-13T01:51:49.924Z,-2.99
2023-02-13T01:54:17.619Z,-2.94
2023-02-13T01:56:45.393Z,-2.92
2023-02-13T01:59:12.972Z,-2.83
2023-02-13T02:01:40.579Z,-2.81
2023-02-13T02:04:08.155Z,-2.82
2023-02-13T02:06:35.787Z,-2.82
2023-02-13T02:09:03.401Z,-2.84
2023-02-13T02:11:30.965Z,-2.91
2023-02-13T02:13:58.776Z,-2.92
2023-02-13T02:16:27.110Z,-2.94
2023-02-13T02:18:54.669Z,-2.96
2023-02-13T02:21:22.384Z,-2.99
2023-02-13T02:23:49.980Z,-2.98
2023-02-13T02:26:17.692Z,-2.94
2023-02-13T02:28:45.267Z,-2.87
2023-02-13T02:31:12.941Z,-2.84
2023-02-13T02:33:40.615Z,-2.80
2023-02-13T02:36:08.460Z,-2.77
2023-02-13T02:38:36.184Z,-2.79
2023-02-13T02:41:03.696Z,-2.75
2023-02-13T02:43:31.727Z,-2.76
2023-02-13T02:45:59.201Z,-2.78
2023-02-13T02:48:45.751Z,-2.88
2023-02-13T02:51:13.220Z,-2.94
2023-02-13T02:53:40.720Z,-3.01
2023-02-13T02:56:08.340Z,-3.08
2023-02-13T02:58:54.678Z,-3.18
2023-02-13T03:01:41.101Z,-3.27
2023-02-13T03:04:27.716Z,-3.33
2023-02-13T03:06:55.341Z,-3.33
2023-02-13T03:09:41.633Z,-3.37
2023-02-13T03:12:28.091Z,-3.40
2023-02-13T03:14:55.704Z,-3.43
2023-02-13T03:17:42.279Z,-3.43
2023-02-13T03:20:28.703Z,-3.43
2023-02-13T03:22:56.263Z,-3.40
2023-02-13T03:25:36.215Z,-3.38
2023-02-13T03:28:22.967Z,-3.40
2023-02-13T03:30:50.552Z,-3.43
2023-02-13T03:33:18.399Z,-3.45
2023-02-13T03:36:04.868Z,-3.50
2023-02-13T03:38:32.390Z,-3.58
2023-02-13T03:41:18.442Z,-3.61
2023-02-13T03:43:46.085Z,-3.68
2023-02-13T03:46:13.673Z,-3.71
2023-02-13T03:49:00.193Z,-3.71
2023-02-13T03:51:27.695Z,-3.71
2023-02-13T03:53:55.556Z,-3.72
2023-02-13T03:56:42.113Z,-3.75
2023-02-13T03:59:18.912Z,-3.74
2023-02-13T04:01:46.669Z,-3.75
2023-02-13T04:04:14.147Z,-3.75
2023-02-13T04:06:41.654Z,-3.72
2023-02-13T04:09:09.267Z,-3.69
2023-02-13T04:11:36.846Z,-3.65
2023-02-13T04:14:04.642Z,-3.62
2023-02-13T04:16:32.290Z,-3.62
2023-02-13T04:18:59.790Z,-3.60
2023-02-13T04:21:27.312Z,-3.56
2023-02-13T04:23:54.808Z,-3.50
2023-02-13T04:26:22.346Z,-3.48
2023-02-13T04:28:49.853Z,-3.46
2023-02-13T04:31:17.476Z,-3.47
2023-02-13T04:33:45.267Z,-3.44
2023-02-13T04:36:12.758Z,-3.40
2023-02-13T04:38:40.332Z,-3.41
2023-02-13T04:41:08.047Z,-3.38
2023-02-13T04:43:35.568Z,-3.29
2023-02-13T04:46:03.165Z,-3.25
2023-02-13T04:48:30.754Z,-3.24
2023-02-13T04:50:58.507Z,-3.22
2023-02-13T04:53:26.197Z,-3.17
2023-02-13T04:55:53.723Z,-3.10
2023-02-13T04:58:21.287Z,-3.04
2023-02-13T05:00:48.847Z,-2.99
2023-02-13T05:03:16.383Z,-2.95
2023-02-13T05:05:44.655Z,-2.91
2023-02-13T05:08:12.195Z,-2.88
2023-02-13T05:10:39.680Z,-2.81
2023-02-13T05:13:07.250Z,-2.73
2023-02-13T05:15:34.946Z,-2.64
2023-02-13T05:18:02.545Z,-2.62
2023-02-13T05:20:30.079Z,-2.61
2023-02-13T05:23:16.849Z,-2.63
2023-02-13T05:25:44.411Z,-2.71
2023-02-13T05:28:31.025Z,-2.74
2023-02-13T05:30:59.023Z,-2.74
2023-02-13T05:33:26.831Z,-2.73
2023-02-13T05:35:54.411Z,-2.71
2023-02-13T05:38:22.001Z,-2.65
2023-02-13T05:40:49.553Z,-2.61
2023-02-13T05:43:17.608Z,-2.59
2023-02-13T05:45:45.188Z,-2.55
2023-02-13T05:48:12.660Z,-2.57
2023-02-13T05:50:40.360Z,-2.57
2023-02-13T05:53:07.816Z,-2.51
2023-02-13T05:55:35.343Z,-2.50
2023-02-13T05:58:02.885Z,-2.53
2023-02-13T06:00:30.428Z,-2.57
2023-02-13T06:02:57.986Z,-2.59
2023-02-13T06:05:25.629Z,-2.58
2023-02-13T06:07:53.130Z,-2.53
2023-02-13T06:10:20.627Z,-2.50
2023-02-13T06:12:48.126Z,-2.49
2023-02-13T06:15:15.618Z,-2.46
2023-02-13T06:17:43.100Z,-2.40
2023-02-13T06:20:11.092Z,-2.37
2023-02-13T06:22:38.641Z,-2.01
2023-02-13T06:25:06.144Z,-1.71
2023-02-13T06:27:33.884Z,-1.78
2023-02-13T06:30:01.410Z,-1.81
2023-02-13T06:32:29.080Z,-1.79
2023-02-13T06:34:56.672Z,-1.81
2023-02-13T06:37:24.187Z,-1.89
2023-02-13T06:39:51.647Z,-1.96
2023-02-13T06:42:19.205Z,-2.02
2023-02-13T06:44:46.868Z,-2.05
2023-02-13T06:47:14.326Z,-2.04
2023-02-13T06:49:41.928Z,-2.03
2023-02-13T06:52:09.437Z,-1.98
2023-02-13T06:54:46.702Z,-1.89
2023-02-13T06:57:15.614Z,-1.81
2023-02-13T06:59:43.139Z,-1.73
2023-02-13T07:02:10.712Z,-1.66
2023-02-13T07:04:38.432Z,-1.62
2023-02-13T07:07:05.949Z,-1.60
2023-02-13T07:09:33.477Z,-1.57
2023-02-13T07:12:01.034Z,-1.54
2023-02-13T07:14:28.509Z,-1.46
2023-02-13T07:16:56.269Z,-1.39
2023-02-13T07:19:23.834Z,-1.24
2023-02-13T07:21:51.376Z,-1.09
2023-02-13T07:24:18.880Z,-0.99
2023-02-13T07:26:46.427Z,-0.88
2023-02-13T07:29:13.993Z,-0.84
2023-02-13T07:31:41.780Z,-0.78
2023-02-13T07:34:09.371Z,-0.75
2023-02-13T07:36:36.966Z,-0.72
2023-02-13T07:39:04.492Z,-0.66
2023-02-13T07:41:32.089Z,-0.60
2023-02-13T07:43:59.745Z,-0.57
2023-02-13T07:46:27.456Z,-0.58
2023-02-13T07:48:55.045Z,-0.62
2023-02-13T07:51:25.408Z,-0.60
2023-02-13T07:53:52.959Z,-0.59
2023-02-13T07:56:20.786Z,-0.56
2023-02-13T07:58:48.445Z,-0.53
2023-02-13T08:01:15.958Z,-0.49
2023-02-13T08:03:43.588Z,-0.48
2023-02-13T08:06:11.117Z,-0.47
2023-02-13T08:08:38.877Z,-0.43
2023-02-13T08:11:25.492Z,-0.31
2023-02-13T08:13:53.052Z,-0.19
2023-02-13T08:16:20.581Z,-0.07
2023-02-13T08:18:48.328Z,-0.02
2023-02-13T08:21:15.824Z,0.00
2023-02-13T08:23:43.556Z,0.07
2023-02-13T08:26:11.366Z,0.17
2023-02-13T08:28:38.939Z,0.24
2023-02-13T08:31:06.624Z,0.31
2023-02-13T08:33:34.310Z,0.37
2023-02-13T08:36:01.874Z,0.40
2023-02-13T08:38:29.597Z,0.55
2023-02-13T08:40:57.406Z,0.65
2023-02-13T08:43:25.172Z,0.71
2023-02-13T08:45:52.706Z,0.78
2023-02-13T08:48:20.425Z,0.89
2023-02-13T08:50:47.934Z,0.98
2023-02-13T08:53:15.468Z,1.01
2023-02-13T08:55:43.017Z,0.97
2023-02-13T08:58:10.559Z,0.92
2023-02-13T09:00:38.113Z,0.87
2023-02-13T09:03:08.369Z,0.85
2023-02-13T09:05:36.783Z,0.87
2023-02-13T09:08:04.324Z,0.90
2023-02-13T09:10:32.038Z,0.96
2023-02-13T09:13:01.287Z,1.01
2023-02-13T09:15:28.831Z,0.99
2023-02-13T09:17:56.443Z,1.02
2023-02-13T09:20:23.982Z,1.05
2023-02-13T09:22:51.509Z,1.09
2023-02-13T09:25:20.317Z,1.13
2023-02-13T09:27:47.990Z,1.18
2023-02-13T09:30:23.166Z,1.26
2023-02-13T09:32:50.733Z,1.40
2023-02-13T09:35:18.748Z,1.56
2023-02-13T09:37:46.273Z,1.70
2023-02-13T09:40:13.852Z,1.75
2023-02-13T09:42:41.314Z,1.76
2023-02-13T09:45:09.018Z,1.81
2023-02-13T09:47:36.520Z,1.85
2023-02-13T09:50:04.173Z,1.94
2023-02-13T09:52:31.700Z,2.06
2023-02-13T09:54:59.198Z,2.19
2023-02-13T09:57:27.076Z,2.35
2023-02-13T09:59:57.144Z,2.51
2023-02-13T10:02:24.714Z,2.61
2023-02-13T10:04:52.244Z,2.65
2023-02-13T10:07:20.095Z,2.70
2023-02-13T10:09:47.724Z,2.83
2023-02-13T10:12:15.289Z,3.00
2023-02-13T10:14:43.219Z,3.11
2023-02-13T10:17:10.728Z,3.23
2023-02-13T10:19:38.242Z,3.35
2023-02-13T10:22:06.010Z,3.48
2023-02-13T10:24:33.667Z,3.59
2023-02-13T10:27:01.181Z,3.68
2023-02-13T10:29:49.047Z,3.77
2023-02-13T10:32:16.769Z,3.87
2023-02-13T10:34:44.357Z,3.91
2023-02-13T10:37:12.362Z,4.00
2023-02-13T10:39:39.888Z,4.01
2023-02-13T10:42:07.364Z,4.02
2023-02-13T10:44:34.924Z,3.97
2023-02-13T10:47:02.445Z,3.97
2023-02-13T10:49:29.922Z,4.05
2023-02-13T10:51:57.595Z,4.16
2023-02-13T10:54:25.149Z,4.21
2023-02-13T10:56:52.658Z,4.28
2023-02-13T10:59:20.201Z,4.30
2023-02-13T11:01:47.800Z,4.32
2023-02-13T11:04:15.482Z,4.32
2023-02-13T11:06:43.190Z,4.32
2023-02-13T11:09:13.347Z,4.44
2023-02-13T11:11:40.846Z,4.58
2023-02-13T11:14:08.550Z,4.64
2023-02-13T11:16:36.110Z,4.64
2023-02-13T11:19:03.721Z,4.72
2023-02-13T11:21:31.272Z,4.80
2023-02-13T11:23:58.821Z,4.85
2023-02-13T11:26:26.351Z,4.80
2023-02-13T11:28:53.929Z,4.75
2023-02-13T11:31:21.477Z,4.74
2023-02-13T11:33:49.219Z,4.71
2023-02-13T11:36:16.766Z,4.67
2023-02-13T11:38:44.467Z,4.71
2023-02-13T11:41:11.960Z,4.74
2023-02-13T11:43:39.501Z,4.75
2023-02-13T11:46:07.099Z,4.79
2023-02-13T11:48:34.782Z,4.86
2023-02-13T11:51:02.274Z,4.88
2023-02-13T11:53:29.845Z,4.92
2023-02-13T11:55:57.586Z,4.96
2023-02-13T11:58:25.641Z,4.92
2023-02-13T12:00:53.309Z,4.84
2023-02-13T12:03:20.984Z,4.81
2023-02-13T12:05:48.797Z,4.85
2023-02-13T12:08:16.289Z,4.91
2023-02-13T12:10:43.811Z,4.94
2023-02-13T12:13:13.334Z,4.97
2023-02-13T12:15:40.816Z,4.91
2023-02-13T12:18:08.309Z,4.91
2023-02-13T12:20:35.931Z,4.93
2023-02-13T12:23:03.694Z,5.01
2023-02-13T12:25:31.317Z,4.99
2023-02-13T12:27:59.291Z,4.96
2023-02-13T12:30:27.906Z,4.99
2023-02-13T12:32:55.567Z,5.02
2023-02-13T12:35:23.343Z,5.00
2023-02-13T12:37:50.860Z,4.95
2023-02-13T12:40:21.444Z,4.89
2023-02-13T12:42:48.990Z,4.87
2023-02-13T12:45:16.665Z,4.88
2023-02-13T12:47:47.017Z,4.88
2023-02-13T12:50:14.521Z,4.86
2023-02-13T12:52:42.001Z,4.79
2023-02-13T12:55:12.251Z,4.75
2023-02-13T12:57:39.978Z,4.73
2023-02-13T13:00:07.869Z,4.69
2023-02-13T13:02:35.619Z,4.68
2023-02-13T13:05:05.201Z,4.70
2023-02-13T13:07:32.716Z,4.70
2023-02-13T13:10:00.210Z,4.68
2023-02-13T13:12:29.822Z,4.69
2023-02-13T13:14:57.295Z,4.68
2023-02-13T13:17:24.846Z,4.68
2023-02-13T13:19:52.936Z,4.70
2023-02-13T13:22:20.561Z,4.71
2023-02-13T13:24:48.278Z,4.74
2023-02-13T13:27:15.852Z,4.75
2023-02-13T13:29:43.514Z,4.75
2023-02-13T13:32:11.136Z,4.70
2023-02-13T13:34:38.846Z,4.64
2023-02-13T13:37:06.403Z,4.62
2023-02-13T13:39:33.956Z,4.58
2023-02-13T13:42:02.517Z,4.52
2023-02-13T13:44:30.036Z,4.45
2023-02-13T13:46:57.533Z,4.36
2023-02-13T13:49:25.096Z,4.28
2023-02-13T13:51:52.610Z,4.22
2023-02-13T13:54:20.155Z,4.20
2023-02-13T13:56:47.712Z,4.18
2023-02-13T13:59:15.242Z,4.14
2023-02-13T14:01:42.833Z,4.14
2023-02-13T14:04:10.380Z,4.16
2023-02-13T14:06:37.860Z,4.18
2023-02-13T14:09:06.205Z,4.22
2023-02-13T14:11:34.141Z,4.25
2023-02-13T14:14:01.931Z,4.25
2023-02-13T14:16:29.453Z,4.25
2023-02-13T14:18:56.995Z,4.24
2023-02-13T14:21:24.815Z,4.24
2023-02-13T14:23:53.363Z,4.24
2023-02-13T14:26:21.066Z,4.25
2023-02-13T14:28:48.571Z,4.26
2023-02-13T14:31:16.891Z,4.22
2023-02-13T14:33:44.559Z,4.16
2023-02-13T14:36:12.440Z,4.11
2023-02-13T14:38:39.961Z,4.03
2023-02-13T14:41:07.596Z,3.99
2023-02-13T14:43:35.478Z,3.96
2023-02-13T14:46:03.045Z,3.94
2023-02-13T14:48:30.650Z,3.91
2023-02-13T14:51:00.141Z,3.85
2023-02-13T14:53:28.108Z,3.76
2023-02-13T14:55:55.612Z,3.71
2023-02-13T14:58:23.077Z,3.71
2023-02-13T15:00:50.555Z,3.69
2023-02-13T15:03:18.079Z,3.68
2023-02-13T15:05:45.590Z,3.66
2023-02-13T15:08:13.044Z,3.64
2023-02-13T15:10:44.207Z,3.62
2023-02-13T15:13:11.673Z,3.60
2023-02-13T15:15:39.208Z,3.55
2023-02-13T15:18:06.970Z,3.49
2023-02-13T15:20:34.480Z,3.47
2023-02-13T15:23:01.944Z,3.46
2023-02-13T15:25:29.464Z,3.48
2023-02-13T15:27:58.733Z,3.47
2023-02-13T15:30:26.428Z,3.44
2023-02-13T15:32:54.304Z,3.41
2023-02-13T15:35:22.232Z,3.36
2023-02-13T15:37:49.696Z,3.31
2023-02-13T15:40:17.240Z,3.28
2023-02-13T15:42:44.854Z,3.27
2023-02-13T15:45:12.622Z,3.24
2023-02-13T15:47:40.253Z,3.20
2023-02-13T15:50:07.762Z,3.17
2023-02-13T15:52:35.290Z,3.14
2023-02-13T15:55:03.346Z,3.12
2023-02-13T15:57:31.022Z,3.10
2023-02-13T15:59:58.708Z,3.09
2023-02-13T16:02:26.317Z,3.07
2023-02-13T16:04:53.857Z,3.05
2023-02-13T16:07:21.301Z,3.03
2023-02-13T16:09:48.839Z,3.00
2023-02-13T16:12:16.619Z,3.00
2023-02-13T16:14:44.164Z,3.03
2023-02-13T16:17:11.774Z,3.02
2023-02-13T16:19:39.323Z,3.01
2023-02-13T16:22:06.942Z,2.98
2023-02-13T16:24:34.475Z,2.95
2023-02-13T16:27:02.251Z,2.95
2023-02-13T16:29:29.775Z,2.96
2023-02-13T16:31:57.852Z,2.98
2023-02-13T16:34:25.558Z,3.00
2023-02-13T16:36:53.173Z,3.01
2023-02-13T16:39:21.679Z,2.98
2023-02-13T16:41:50.084Z,2.94
2023-02-13T16:44:17.574Z,2.91
2023-02-13T16:46:45.301Z,2.90
2023-02-13T16:49:13.003Z,2.88
2023-02-13T16:51:40.533Z,2.87
2023-02-13T16:54:08.130Z,2.85
2023-02-13T16:56:35.626Z,2.81
2023-02-13T16:59:03.124Z,2.79
2023-02-13T17:01:30.759Z,2.74
2023-02-13T17:03:58.450Z,2.73
2023-02-13T17:06:26.113Z,2.72
2023-02-13T17:08:54.238Z,2.71
2023-02-13T17:11:21.898Z,2.71
2023-02-13T17:13:49.378Z,2.70
2023-02-13T17:16:17.127Z,2.69
2023-02-13T17:18:44.703Z,2.67
2023-02-13T17:21:12.721Z,2.68
2023-02-13T17:23:40.450Z,2.67
2023-02-13T17:26:07.958Z,2.68
2023-02-13T17:28:35.480Z,2.69
2023-02-13T17:31:06.670Z,2.69
2023-02-13T17:33:35.577Z,2.68
2023-02-13T17:36:04.350Z,2.67
2023-02-13T17:38:32.021Z,2.65
2023-02-13T17:40:59.777Z,2.64
2023-02-13T17:43:28.000Z,2.62
2023-02-13T17:45:55.800Z,2.60
2023-02-13T17:48:24.227Z,2.58
2023-02-13T17:50:52.006Z,2.55
2023-02-13T17:53:19.626Z,2.53
2023-02-13T17:55:47.152Z,2.50
2023-02-13T17:58:14.782Z,2.49
2023-02-13T18:00:42.625Z,2.58
2023-02-13T18:03:10.944Z,2.66
2023-02-13T18:05:38.832Z,2.63
2023-02-13T18:08:06.431Z,2.59
2023-02-13T18:10:34.082Z,2.57
2023-02-13T18:13:04.738Z,2.54
2023-02-13T18:15:32.760Z,2.52
2023-02-13T18:18:00.438Z,2.50
2023-02-13T18:20:30.962Z,2.48
2023-02-13T18:22:58.552Z,2.44
2023-02-13T18:25:26.171Z,2.38
2023-02-13T18:27:55.278Z,2.29
2023-02-13T18:30:23.034Z,2.21
2023-02-13T18:32:50.619Z,2.15
2023-02-13T18:35:18.974Z,2.13
2023-02-13T18:37:46.563Z,2.13
2023-02-13T18:40:15.076Z,2.16
2023-02-13T18:42:42.545Z,2.17
2023-02-13T18:45:10.236Z,2.14
2023-02-13T18:47:37.999Z,2.08
2023-02-13T18:50:05.922Z,2.05
2023-02-13T18:52:33.741Z,2.06
2023-02-13T18:55:01.465Z,2.05
2023-02-13T18:57:29.190Z,2.04
2023-02-13T18:59:57.077Z,2.03
2023-02-13T19:02:25.342Z,2.03
2023-02-13T19:04:53.202Z,2.02
2023-02-13T19:07:20.831Z,2.01
2023-02-13T19:09:49.003Z,1.98
2023-02-13T19:12:16.906Z,1.94
2023-02-13T19:14:48.295Z,1.91
2023-02-13T19:17:15.773Z,1.90
2023-02-13T19:19:47.183Z,1.89
2023-02-13T19:22:14.766Z,1.87
2023-02-13T19:24:42.512Z,1.85
2023-02-13T19:27:10.246Z,1.84
2023-02-13T19:29:37.820Z,1.87
2023-02-13T19:32:05.689Z,1.88
2023-02-13T19:34:34.676Z,1.89
2023-02-13T19:37:02.272Z,1.89
2023-02-13T19:39:30.252Z,1.90
2023-02-13T19:41:58.964Z,1.91
2023-02-13T19:44:26.828Z,1.88
2023-02-13T19:46:54.535Z,1.87
2023-02-13T19:49:22.644Z,1.85
2023-02-13T19:51:51.509Z,1.82
2023-02-13T19:54:19.699Z,1.80
2023-02-13T19:56:47.880Z,1.77
2023-02-13T19:59:15.579Z,1.74
2023-02-13T20:01:43.198Z,1.73
2023-02-13T20:04:10.823Z,1.71
2023-02-13T20:06:38.780Z,1.68
2023-02-13T20:09:06.599Z,1.63
2023-02-13T20:11:34.728Z,1.59
2023-02-13T20:14:04.195Z,1.59
2023-02-13T20:16:35.387Z,1.58
2023-02-13T20:19:06.645Z,1.59
2023-02-13T20:21:34.993Z,1.58
2023-02-13T20:24:03.261Z,1.57
2023-02-13T20:26:31.208Z,1.58
2023-02-13T20:28:59.693Z,1.55
2023-02-13T20:31:27.376Z,1.56
2023-02-13T20:33:55.791Z,1.57
2023-02-13T20:36:23.430Z,1.59
2023-02-13T20:38:51.224Z,1.63
2023-02-13T20:41:19.124Z,1.66
2023-02-13T20:43:47.347Z,1.68
2023-02-13T20:46:18.277Z,1.66
2023-02-13T20:48:45.943Z,1.66
2023-02-13T20:51:13.868Z,1.66
2023-02-13T20:53:41.752Z,1.65
2023-02-13T20:56:10.943Z,1.64
2023-02-13T20:58:38.462Z,1.63
2023-02-13T21:01:06.119Z,1.65
2023-02-13T21:03:33.918Z,1.67
2023-02-13T21:06:01.423Z,1.69
2023-02-13T21:08:28.885Z,1.70
2023-02-13T21:10:56.729Z,1.66
2023-02-13T21:13:27.575Z,1.63
2023-02-13T21:15:58.988Z,1.60
2023-02-13T21:18:26.674Z,1.59
2023-02-13T21:20:55.149Z,1.60
2023-02-13T21:23:22.940Z,1.64
2023-02-13T21:25:50.476Z,1.68
2023-02-13T21:28:18.004Z,1.72
2023-02-13T21:30:45.669Z,1.75
2023-02-13T21:33:13.567Z,1.77
2023-02-13T21:35:41.109Z,1.77
2023-02-13T21:38:08.852Z,1.75
2023-02-13T21:40:36.400Z,1.75
2023-02-13T21:43:03.926Z,1.75
2023-02-13T21:45:31.642Z,1.78
2023-02-13T21:47:59.258Z,1.78
2023-02-13T21:50:26.743Z,1.77
2023-02-13T21:52:54.281Z,1.79
2023-02-13T21:55:22.041Z,1.77
2023-02-13T21:57:49.586Z,1.76
2023-02-13T22:00:17.120Z,1.74
2023-02-13T22:02:44.728Z,1.73
2023-02-13T22:05:12.472Z,1.72
2023-02-13T22:08:00.157Z,1.71
2023-02-13T22:10:27.713Z,1.70
2023-02-13T22:12:55.310Z,1.70
2023-02-13T22:15:22.898Z,1.70
2023-02-13T22:17:50.428Z,1.69
2023-02-13T22:20:18.886Z,1.66
2023-02-13T22:22:46.621Z,1.62
2023-02-13T22:25:14.174Z,1.61
2023-02-13T22:27:41.905Z,1.61
2023-02-13T22:30:09.574Z,1.62
2023-02-13T22:32:37.353Z,1.64
2023-02-13T22:35:04.899Z,1.64
2023-02-13T22:37:32.437Z,1.63
2023-02-13T22:39:59.998Z,1.64
2023-02-13T22:42:27.566Z,1.64
2023-02-13T22:44:55.163Z,1.64
2023-02-13T22:47:22.933Z,1.63
2023-02-13T22:49:50.541Z,1.64
2023-02-13T22:52:18.087Z,1.64
2023-02-13T22:54:45.607Z,1.65
2023-02-13T22:57:13.331Z,1.62
2023-02-13T22:59:40.894Z,1.61
2023-02-13T23:02:08.528Z,1.55
2023-02-13T23:04:36.110Z,1.51
2023-02-13T23:07:03.785Z,1.50
2023-02-13T23:09:31.515Z,1.46
2023-02-13T23:12:17.764Z,1.43
2023-02-13T23:14:45.293Z,1.41
2023-02-13T23:17:32.032Z,1.39
2023-02-13T23:19:59.558Z,1.38
2023-02-13T23:22:27.043Z,1.35
2023-02-13T23:24:54.575Z,1.33
2023-02-13T23:27:22.278Z,1.32
2023-02-13T23:29:49.895Z,1.30
2023-02-13T23:32:17.782Z,1.32
2023-02-13T23:34:45.654Z,1.35
2023-02-13T23:37:13.266Z,1.36
2023-02-13T23:39:40.846Z,1.37
2023-02-13T23:42:08.418Z,1.39
2023-02-13T23:44:35.912Z,1.41
2023-02-13T23:47:03.415Z,1.41
2023-02-13T23:49:30.960Z,1.40
2023-02-13T23:51:59.788Z,1.41
2023-02-13T23:54:27.347Z,1.41
2023-02-13T23:56:54.932Z,1.43
2023-02-13T23:59:22.753Z,1.47
